createdAt,value
2023-08-19T00:00:27.844Z,100703.67
2023-08-19T00:02:57.447Z,100703.70
2023-08-19T00:05:25.413Z,100700.77
2023-08-19T00:07:52.849Z,100697.36
2023-08-19T00:10:20.165Z,100692.52
2023-08-19T00:12:47.535Z,100693.64
2023-08-19T00:15:14.930Z,100689.07
2023-08-19T00:17:42.541Z,100690.67
2023-08-19T00:20:12.065Z,100693.69
2023-08-19T00:22:39.492Z,100693.32
2023-08-19T00:25:07.070Z,100691.88
2023-08-19T00:27:34.490Z,100692.04
2023-08-19T00:30:02.034Z,100683.90
2023-08-19T00:32:31.189Z,100683.05
2023-08-19T00:34:58.566Z,100680.95
2023-08-19T00:37:25.873Z,100677.80
2023-08-19T00:39:53.862Z,100675.02
2023-08-19T00:42:21.192Z,100670.16
2023-08-19T00:44:48.659Z,100667.48
2023-08-19T00:47:16.089Z,100669.08
2023-08-19T00:49:43.691Z,100667.80
2023-08-19T00:52:11.141Z,100668.00
2023-08-19T00:54:38.588Z,100669.28
2023-08-19T00:57:07.065Z,100669.98
2023-08-19T00:59:34.397Z,100665.44
2023-08-19T01:02:02.201Z,100667.55
2023-08-19T01:04:29.631Z,100667.41
2023-08-19T01:07:14.072Z,100664.31
2023-08-19T01:09:43.589Z,100666.02
2023-08-19T01:12:18.827Z,100661.16
2023-08-19T01:15:05.631Z,100664.45
2023-08-19T01:17:33.479Z,100662.79
2023-08-19T01:20:01.615Z,100663.15
2023-08-19T01:22:57.520Z,100662.84
2023-08-19T01:25:25.654Z,100665.31
2023-08-19T01:27:55.006Z,100667.29
2023-08-19T01:30:22.448Z,100665.88
2023-08-19T01:32:49.834Z,100666.28
2023-08-19T01:35:18.575Z,100666.52
2023-08-19T01:37:57.255Z,100663.19
2023-08-19T01:40:24.859Z,100664.80
2023-08-19T01:42:52.259Z,100666.69
2023-08-19T01:45:19.609Z,100662.59
2023-08-19T01:47:47.081Z,100663.27
2023-08-19T01:50:14.441Z,100658.73
2023-08-19T01:52:41.966Z,100657.20
2023-08-19T01:55:10.362Z,100660.83
2023-08-19T01:57:37.997Z,100662.21
2023-08-19T02:00:08.305Z,100664.32
2023-08-19T02:02:44.620Z,100669.04
2023-08-19T02:05:15.959Z,100670.25
2023-08-19T02:07:44.102Z,100663.29
2023-08-19T02:10:13.400Z,100664.88
2023-08-19T02:12:40.885Z,100662.61
2023-08-19T02:15:08.861Z,100662.49
2023-08-19T02:17:36.355Z,100667.05
2023-08-19T02:20:04.626Z,100669.84
2023-08-19T02:22:32.055Z,100667.09
2023-08-19T02:24:59.544Z,100669.52
2023-08-19T02:27:27.165Z,100671.08
2023-08-19T02:29:55.200Z,100671.01
2023-08-19T02:32:23.296Z,100673.24
2023-08-19T02:34:51.551Z,100669.50
2023-08-19T02:37:18.995Z,100670.81
2023-08-19T02:39:46.444Z,100673.67
2023-08-19T02:42:17.532Z,100674.20
2023-08-19T02:44:45.089Z,100676.65
2023-08-19T02:47:12.436Z,100679.42
2023-08-19T02:51:54.712Z,100690.05
2023-08-19T02:54:22.089Z,100686.74
2023-08-19T02:56:49.655Z,100689.42
2023-08-19T02:59:17.147Z,100687.58
2023-08-19T03:01:44.481Z,100688.81
2023-08-19T03:04:11.885Z,100691.69
2023-08-19T03:06:39.731Z,100692.12
2023-08-19T03:09:07.050Z,100688.42
2023-08-19T03:11:34.621Z,100693.19
2023-08-19T03:14:02.268Z,100687.31
2023-08-19T03:16:30.097Z,100689.14
2023-08-19T03:18:57.442Z,100681.21
2023-08-19T03:21:24.846Z,100687.39
2023-08-19T03:23:52.309Z,100685.04
2023-08-19T03:26:20.155Z,100685.23
2023-08-19T03:28:48.035Z,100681.95
2023-08-19T03:31:16.152Z,100682.67
2023-08-19T03:33:43.619Z,100682.75
2023-08-19T03:36:11.939Z,100682.35
2023-08-19T03:38:39.594Z,100683.56
2023-08-19T03:41:07.050Z,100676.90
2023-08-19T03:43:35.092Z,100678.32
2023-08-19T03:46:02.604Z,100681.77
2023-08-19T03:48:30.059Z,100687.18
2023-08-19T03:50:57.420Z,100684.81
2023-08-19T03:53:25.058Z,100683.29
2023-08-19T03:55:52.745Z,100687.90
2023-08-19T03:58:20.145Z,100680.78
2023-08-19T04:00:48.989Z,100678.75
2023-08-19T04:03:20.897Z,100684.16
2023-08-19T04:05:48.250Z,100682.48
2023-08-19T04:08:15.641Z,100675.68
2023-08-19T04:10:42.998Z,100676.91
2023-08-19T04:13:10.964Z,100677.94
2023-08-19T04:15:38.352Z,100678.86
2023-08-19T04:18:06.447Z,100679.68
2023-08-19T04:20:38.480Z,100681.23
2023-08-19T04:23:06.724Z,100685.45
2023-08-19T04:25:34.103Z,100683.48
2023-08-19T04:28:02.329Z,100682.18
2023-08-19T04:30:29.945Z,100676.11
2023-08-19T04:32:59.847Z,100671.83
2023-08-19T04:35:31.338Z,100675.09
2023-08-19T04:37:58.959Z,100676.33
2023-08-19T04:40:26.711Z,100670.86
2023-08-19T04:42:54.185Z,100670.05
2023-08-19T04:45:22.272Z,100668.40
2023-08-19T04:47:50.760Z,100665.48
2023-08-19T04:50:18.521Z,100662.87
2023-08-19T04:52:45.862Z,100661.99
2023-08-19T04:55:16.174Z,100659.77
2023-08-19T04:57:43.688Z,100662.98
2023-08-19T05:00:13.598Z,100662.23
2023-08-19T05:02:42.285Z,100659.41
2023-08-19T05:05:09.675Z,100663.38
2023-08-19T05:07:37.731Z,100663.25
2023-08-19T05:10:05.434Z,100665.19
2023-08-19T05:12:32.961Z,100670.46
2023-08-19T05:15:00.814Z,100672.64
2023-08-19T05:17:28.962Z,100673.70
2023-08-19T05:19:56.753Z,100673.62
2023-08-19T05:22:24.367Z,100673.36
2023-08-19T05:24:51.750Z,100678.14
2023-08-19T05:27:19.167Z,100676.20
2023-08-19T05:29:46.641Z,100677.66
2023-08-19T05:32:13.969Z,100675.30
2023-08-19T05:34:43.442Z,100678.63
2023-08-19T05:37:11.103Z,100676.55
2023-08-19T05:39:38.512Z,100674.67
2023-08-19T05:42:06.013Z,100678.08
2023-08-19T05:44:33.405Z,100677.75
2023-08-19T05:47:00.699Z,100675.54
2023-08-19T05:49:28.822Z,100676.11
2023-08-19T05:51:56.541Z,100675.79
2023-08-19T05:54:23.832Z,100675.52
2023-08-19T05:56:51.179Z,100676.42
2023-08-19T05:59:18.636Z,100682.92
2023-08-19T06:01:45.999Z,100686.82
2023-08-19T06:04:13.562Z,100684.67
2023-08-19T06:06:40.965Z,100683.34
2023-08-19T06:09:08.914Z,100685.81
2023-08-19T06:11:47.462Z,100683.93
2023-08-19T06:14:15.182Z,100684.45
2023-08-19T06:16:43.255Z,100683.31
2023-08-19T06:19:13.520Z,100680.34
2023-08-19T06:21:41.422Z,100688.09
2023-08-19T06:24:09.139Z,100685.92
2023-08-19T06:26:36.824Z,100680.96
2023-08-19T06:29:04.490Z,100679.23
2023-08-19T06:31:32.674Z,100682.46
2023-08-19T06:34:00.296Z,100682.53
2023-08-19T06:36:29.950Z,100684.46
2023-08-19T06:39:30.251Z,100683.84
2023-08-19T06:42:03.022Z,100684.48
2023-08-19T06:44:33.959Z,100689.18
2023-08-19T06:47:03.092Z,100687.95
2023-08-19T06:49:30.728Z,100687.14
2023-08-19T06:51:58.503Z,100694.65
2023-08-19T06:54:26.092Z,100695.38
2023-08-19T06:57:11.063Z,100695.75
2023-08-19T06:59:39.810Z,100692.54
2023-08-19T07:02:09.032Z,100692.59
2023-08-19T07:04:37.280Z,100696.06
2023-08-19T07:07:05.736Z,100699.15
2023-08-19T07:09:35.050Z,100698.01
2023-08-19T07:12:03.642Z,100699.69
2023-08-19T07:14:31.535Z,100695.97
2023-08-19T07:17:04.155Z,100694.61
2023-08-19T07:19:33.663Z,100696.61
2023-08-19T07:22:01.535Z,100693.31
2023-08-19T07:24:28.853Z,100693.58
2023-08-19T07:26:56.307Z,100698.16
2023-08-19T07:29:24.098Z,100702.21
2023-08-19T07:31:51.479Z,100700.64
2023-08-19T07:34:18.958Z,100699.84
2023-08-19T07:36:46.322Z,100699.19
2023-08-19T07:39:15.004Z,100701.02
2023-08-19T07:41:42.343Z,100701.20
2023-08-19T07:44:09.791Z,100701.21
2023-08-19T07:46:37.180Z,100699.55
2023-08-19T07:49:04.606Z,100700.93
2023-08-19T07:51:32.017Z,100702.23
2023-08-19T07:53:59.445Z,100698.48
2023-08-19T07:56:26.919Z,100697.88
2023-08-19T07:58:54.449Z,100700.63
2023-08-19T08:01:21.867Z,100694.52
2023-08-19T08:03:49.858Z,100695.27
2023-08-19T08:06:17.312Z,100696.60
2023-08-19T08:08:44.728Z,100698.11
2023-08-19T08:11:12.107Z,100698.71
2023-08-19T08:13:39.756Z,100697.26
2023-08-19T08:16:07.175Z,100697.38
2023-08-19T08:18:35.008Z,100696.09
2023-08-19T08:21:03.387Z,100688.98
2023-08-19T08:23:32.905Z,100685.62
2023-08-19T08:26:05.564Z,100687.71
2023-08-19T08:28:33.035Z,100679.81
2023-08-19T08:31:00.422Z,100676.84
2023-08-19T08:33:27.796Z,100676.02
2023-08-19T08:35:55.278Z,100677.12
2023-08-19T08:38:23.233Z,100684.58
2023-08-19T08:40:51.434Z,100681.30
2023-08-19T08:43:20.958Z,100679.66
2023-08-19T08:45:48.353Z,100685.11
2023-08-19T08:48:17.660Z,100677.74
2023-08-19T08:50:45.249Z,100675.08
2023-08-19T08:53:13.976Z,100675.58
2023-08-19T08:55:41.588Z,100669.82
2023-08-19T08:58:09.032Z,100670.07
2023-08-19T09:00:39.158Z,100669.66
2023-08-19T09:03:06.851Z,100669.02
2023-08-19T09:05:34.941Z,100668.10
2023-08-19T09:08:02.399Z,100671.87
2023-08-19T09:10:29.940Z,100673.64
2023-08-19T09:12:59.045Z,100672.59
2023-08-19T09:15:29.902Z,100670.42
2023-08-19T09:17:58.661Z,100671.02
2023-08-19T09:20:26.839Z,100671.90
2023-08-19T09:23:09.075Z,100669.23
2023-08-19T09:25:39.233Z,100668.50
2023-08-19T09:28:07.328Z,100673.94
2023-08-19T09:30:36.386Z,100671.15
2023-08-19T09:33:04.094Z,100670.90
2023-08-19T09:35:57.192Z,100668.86
2023-08-19T09:38:26.314Z,100666.84
2023-08-19T09:41:08.135Z,100665.72
2023-08-19T09:43:41.797Z,100667.09
2023-08-19T09:46:09.857Z,100662.93
2023-08-19T09:48:37.611Z,100661.68
2023-08-19T09:51:05.130Z,100665.59
2023-08-19T09:53:32.601Z,100658.91
2023-08-19T09:55:59.993Z,100659.27
2023-08-19T09:58:27.439Z,100657.64
2023-08-19T10:00:54.857Z,100656.21
2023-08-19T10:03:22.312Z,100656.84
2023-08-19T10:05:55.745Z,100657.30
2023-08-19T10:08:24.600Z,100655.55
2023-08-19T10:10:52.082Z,100649.38
2023-08-19T10:13:19.404Z,100645.05
2023-08-19T10:15:47.888Z,100643.79
2023-08-19T10:18:18.308Z,100639.27
2023-08-19T10:20:47.099Z,100639.55
2023-08-19T10:23:14.552Z,100636.22
2023-08-19T10:25:42.670Z,100638.90
2023-08-19T10:28:14.675Z,100643.84
2023-08-19T10:30:42.245Z,100643.95
2023-08-19T10:33:30.276Z,100646.08
2023-08-19T10:36:03.398Z,100649.52
2023-08-19T10:38:45.212Z,100646.53
2023-08-19T10:41:37.246Z,100644.14
2023-08-19T10:44:05.413Z,100645.61
2023-08-19T10:46:39.491Z,100638.81
2023-08-19T10:49:15.727Z,100633.14
2023-08-19T10:52:01.932Z,100630.80
2023-08-19T10:54:40.078Z,100632.45
2023-08-19T10:57:24.944Z,100634.84
2023-08-19T11:00:00.304Z,100633.26
2023-08-19T11:02:28.864Z,100625.56
2023-08-19T11:04:58.712Z,100625.68
2023-08-19T11:07:26.585Z,100622.29
2023-08-19T11:09:55.470Z,100619.96
2023-08-19T11:12:23.895Z,100624.05
2023-08-19T11:14:56.614Z,100622.07
2023-08-19T11:17:28.479Z,100622.67
2023-08-19T11:19:56.969Z,100614.77
2023-08-19T11:22:24.663Z,100611.42
2023-08-19T11:24:52.614Z,100610.46
2023-08-19T11:27:20.254Z,100608.83
2023-08-19T11:29:48.476Z,100608.02
2023-08-19T11:32:20.830Z,100602.65
2023-08-19T11:34:48.460Z,100604.81
2023-08-19T11:37:17.331Z,100603.91
2023-08-19T11:39:46.062Z,100598.66
2023-08-19T11:42:13.409Z,100596.95
2023-08-19T11:44:44.573Z,100598.05
2023-08-19T11:47:15.137Z,100600.45
2023-08-19T11:49:46.012Z,100600.02
2023-08-19T11:52:20.458Z,100600.84
2023-08-19T11:55:01.328Z,100596.56
2023-08-19T11:57:35.609Z,100596.10
2023-08-19T12:00:06.303Z,100593.45
2023-08-19T12:02:40.033Z,100584.50
2023-08-19T12:05:08.224Z,100576.83
2023-08-19T12:07:36.266Z,100582.28
2023-08-19T12:10:05.349Z,100580.93
2023-08-19T12:12:33.507Z,100580.27
2023-08-19T12:15:02.253Z,100578.23
2023-08-19T12:17:31.123Z,100581.48
2023-08-19T12:19:58.520Z,100579.16
2023-08-19T12:22:25.884Z,100576.95
2023-08-19T12:24:53.281Z,100575.25
2023-08-19T12:27:20.646Z,100572.98
2023-08-19T12:29:49.930Z,100569.87
2023-08-19T12:32:17.402Z,100571.45
2023-08-19T12:34:44.731Z,100572.29
2023-08-19T12:37:12.057Z,100573.28
2023-08-19T12:39:39.491Z,100568.53
2023-08-19T12:42:07.152Z,100568.73
2023-08-19T12:44:34.639Z,100568.08
2023-08-19T12:47:01.982Z,100559.73
2023-08-19T12:49:29.341Z,100563.83
2023-08-19T12:51:57.578Z,100564.33
2023-08-19T12:54:25.101Z,100571.23
2023-08-19T12:56:52.506Z,100570.02
2023-08-19T12:59:19.885Z,100569.05
2023-08-19T13:01:48.608Z,100565.02
2023-08-19T13:04:15.991Z,100561.77
2023-08-19T13:06:47.475Z,100560.02
2023-08-19T13:09:15.086Z,100559.16
2023-08-19T13:11:42.413Z,100557.04
2023-08-19T13:14:09.748Z,100553.85
2023-08-19T13:16:37.224Z,100550.20
2023-08-19T13:19:04.978Z,100551.29
2023-08-19T13:21:32.496Z,100550.54
2023-08-19T13:23:59.891Z,100552.64
2023-08-19T13:26:28.213Z,100553.31
2023-08-19T13:28:55.527Z,100551.88
2023-08-19T13:31:24.005Z,100548.43
2023-08-19T13:33:51.550Z,100544.17
2023-08-19T13:36:18.851Z,100547.52
2023-08-19T13:38:46.179Z,100539.97
2023-08-19T13:41:13.776Z,100540.51
2023-08-19T13:43:42.227Z,100543.73
2023-08-19T13:46:09.618Z,100546.94
2023-08-19T13:48:37.031Z,100546.08
2023-08-19T13:51:04.688Z,100543.86
2023-08-19T13:53:32.290Z,100541.61
2023-08-19T13:55:59.749Z,100541.71
2023-08-19T13:58:27.061Z,100541.15
2023-08-19T14:00:54.412Z,100540.94
2023-08-19T14:03:22.404Z,100544.83
2023-08-19T14:05:50.006Z,100543.15
2023-08-19T14:08:17.506Z,100541.45
2023-08-19T14:10:48.806Z,100540.92
2023-08-19T14:13:16.167Z,100541.92
2023-08-19T14:15:43.475Z,100541.05
2023-08-19T14:18:10.892Z,100542.56
2023-08-19T14:20:38.502Z,100543.45
2023-08-19T14:23:05.827Z,100538.67
2023-08-19T14:25:33.124Z,100536.41
2023-08-19T14:28:00.462Z,100535.30
2023-08-19T14:30:27.964Z,100528.21
2023-08-19T14:32:55.297Z,100527.71
2023-08-19T14:35:22.748Z,100531.82
2023-08-19T14:37:50.228Z,100532.06
2023-08-19T14:40:20.606Z,100527.27
2023-08-19T14:42:48.564Z,100523.79
2023-08-19T14:45:16.648Z,100520.83
2023-08-19T14:47:44.057Z,100518.67
2023-08-19T14:50:11.511Z,100517.58
2023-08-19T14:52:39.135Z,100513.44
2023-08-19T14:55:09.112Z,100513.02
2023-08-19T14:57:38.662Z,100511.63
2023-08-19T15:00:12.264Z,100503.52
2023-08-19T15:02:48.077Z,100504.75
2023-08-19T15:05:15.838Z,100507.14
2023-08-19T15:09:36.481Z,100502.06
2023-08-19T15:12:05.068Z,100504.68
2023-08-19T15:14:32.460Z,100501.76
2023-08-19T15:16:59.799Z,100505.04
2023-08-19T15:19:27.164Z,100503.43
2023-08-19T15:21:54.986Z,100501.36
2023-08-19T15:24:22.303Z,100503.65
2023-08-19T15:26:49.666Z,100500.27
2023-08-19T15:29:17.194Z,100497.60
2023-08-19T15:31:44.632Z,100497.86
2023-08-19T15:34:11.969Z,100493.64
2023-08-19T15:36:39.319Z,100494.98
2023-08-19T15:39:06.692Z,100495.20
2023-08-19T15:41:34.098Z,100494.02
2023-08-19T15:44:01.847Z,100492.77
2023-08-19T15:46:29.319Z,100492.91
2023-08-19T15:48:56.649Z,100492.55
2023-08-19T15:51:23.981Z,100492.46
2023-08-19T15:53:52.420Z,100494.95
2023-08-19T15:56:20.657Z,100498.80
2023-08-19T15:58:51.521Z,100501.07
2023-08-19T16:01:18.921Z,100500.98
2023-08-19T16:03:46.230Z,100503.06
2023-08-19T16:06:13.670Z,100499.54
2023-08-19T16:08:41.122Z,100496.50
2023-08-19T16:11:09.158Z,100496.23
2023-08-19T16:13:36.487Z,100493.38
2023-08-19T16:16:03.988Z,100495.16
2023-08-19T16:18:32.004Z,100496.98
2023-08-19T16:20:59.842Z,100494.11
2023-08-19T16:23:28.034Z,100494.70
2023-08-19T16:25:55.391Z,100494.41
2023-08-19T16:28:22.751Z,100494.40
2023-08-19T16:30:50.122Z,100496.21
2023-08-19T16:33:17.454Z,100498.73
2023-08-19T16:35:45.642Z,100498.25
2023-08-19T16:38:12.982Z,100500.24
2023-08-19T16:40:40.412Z,100497.67
2023-08-19T16:43:09.767Z,100497.30
2023-08-19T16:45:37.109Z,100497.11
2023-08-19T16:48:04.988Z,100501.14
2023-08-19T16:50:32.423Z,100503.98
2023-08-19T16:52:59.728Z,100501.34
2023-08-19T16:55:27.132Z,100502.77
2023-08-19T16:57:54.502Z,100502.92
2023-08-19T17:00:24.010Z,100505.12
2023-08-19T17:02:51.489Z,100511.11
2023-08-19T17:05:19.223Z,100512.40
2023-08-19T17:07:46.791Z,100514.01
2023-08-19T17:10:14.082Z,100519.64
2023-08-19T17:12:41.399Z,100517.77
2023-08-19T17:15:08.918Z,100520.13
2023-08-19T17:17:36.602Z,100524.80
2023-08-19T17:20:07.670Z,100522.61
2023-08-19T17:22:38.583Z,100520.84
2023-08-19T17:25:06.272Z,100527.55
2023-08-19T17:27:33.785Z,100529.23
2023-08-19T17:30:01.312Z,100530.27
2023-08-19T17:32:28.782Z,100528.48
2023-08-19T17:34:56.067Z,100529.43
2023-08-19T17:37:23.395Z,100531.43
2023-08-19T17:39:50.947Z,100533.61
2023-08-19T17:42:19.393Z,100533.48
2023-08-19T17:44:54.371Z,100532.42
2023-08-19T17:47:21.898Z,100536.66
2023-08-19T17:49:49.233Z,100535.26
2023-08-19T17:52:16.556Z,100536.69
2023-08-19T17:54:43.968Z,100540.03
2023-08-19T17:57:13.428Z,100537.16
2023-08-19T17:59:40.768Z,100536.59
2023-08-19T18:02:08.310Z,100539.95
2023-08-19T18:04:35.771Z,100540.14
2023-08-19T18:07:03.524Z,100541.40
2023-08-19T18:09:30.929Z,100542.36
2023-08-19T18:12:01.069Z,100540.80
2023-08-19T18:14:28.381Z,100542.20
2023-08-19T18:16:56.402Z,100540.08
2023-08-19T18:19:34.687Z,100543.33
2023-08-19T18:22:03.612Z,100543.57
2023-08-19T18:24:31.760Z,100542.04
2023-08-19T18:27:00.035Z,100536.64
2023-08-19T18:29:27.803Z,100536.27
2023-08-19T18:31:57.219Z,100538.58
2023-08-19T18:34:24.949Z,100541.53
2023-08-19T18:36:52.257Z,100539.31
2023-08-19T18:39:19.670Z,100543.95
2023-08-19T18:41:47.131Z,100537.44
2023-08-19T18:44:14.502Z,100539.67
2023-08-19T18:46:41.974Z,100540.68
2023-08-19T18:49:09.350Z,100547.23
2023-08-19T18:51:36.805Z,100546.22
2023-08-19T18:54:04.575Z,100548.36
2023-08-19T18:56:31.921Z,100541.02
2023-08-19T18:59:00.149Z,100543.63
2023-08-19T19:01:27.693Z,100547.75
2023-08-19T19:03:56.976Z,100550.16
2023-08-19T19:06:25.749Z,100551.14
2023-08-19T19:08:54.976Z,100545.89
2023-08-19T19:11:24.152Z,100552.89
2023-08-19T19:13:51.456Z,100554.95
2023-08-19T19:16:18.762Z,100560.71
2023-08-19T19:18:46.213Z,100563.59
2023-08-19T19:21:13.672Z,100568.64
2023-08-19T19:23:41.022Z,100570.50
2023-08-19T19:26:08.427Z,100570.41
2023-08-19T19:28:36.120Z,100571.10
2023-08-19T19:31:06.210Z,100572.69
2023-08-19T19:33:34.942Z,100574.08
2023-08-19T19:36:02.326Z,100573.48
2023-08-19T19:38:29.736Z,100573.30
2023-08-19T19:40:59.282Z,100574.71
2023-08-19T19:43:26.577Z,100574.15
2023-08-19T19:45:54.419Z,100573.50
2023-08-19T19:48:21.859Z,100572.92
2023-08-19T19:50:49.380Z,100571.67
2023-08-19T19:53:16.721Z,100570.61
2023-08-19T19:55:45.650Z,100565.98
2023-08-19T19:58:14.014Z,100563.27
2023-08-19T20:00:41.461Z,100566.50
2023-08-19T20:03:09.136Z,100562.13
2023-08-19T20:05:36.626Z,100561.72
2023-08-19T20:08:04.161Z,100563.10
2023-08-19T20:10:31.511Z,100563.77
2023-08-19T20:12:58.847Z,100561.66
2023-08-19T20:15:29.842Z,100558.61
2023-08-19T20:17:57.931Z,100564.29
2023-08-19T20:20:25.482Z,100564.23
2023-08-19T20:22:53.020Z,100562.14
2023-08-19T20:25:20.443Z,100562.54
2023-08-19T20:27:47.835Z,100562.10
2023-08-19T20:30:15.280Z,100559.35
2023-08-19T20:32:42.707Z,100556.89
2023-08-19T20:35:12.469Z,100559.83
2023-08-19T20:37:40.049Z,100562.23
2023-08-19T20:40:08.402Z,100561.65
2023-08-19T20:42:35.757Z,100563.36
2023-08-19T20:45:03.230Z,100564.11
2023-08-19T20:47:30.878Z,100562.79
2023-08-19T20:49:58.283Z,100559.35
2023-08-19T20:52:25.669Z,100557.33
2023-08-19T20:54:53.028Z,100555.66
2023-08-19T20:57:20.849Z,100556.56
2023-08-19T20:59:48.143Z,100556.06
2023-08-19T21:02:15.470Z,100558.05
2023-08-19T21:04:42.788Z,100562.80
2023-08-19T21:07:12.294Z,100565.04
2023-08-19T21:09:39.884Z,100560.92
2023-08-19T21:12:07.423Z,100559.39
2023-08-19T21:14:34.782Z,100558.12
2023-08-19T21:17:03.867Z,100557.48
2023-08-19T21:19:31.188Z,100557.71
2023-08-19T21:21:58.895Z,100559.71
2023-08-19T21:24:26.231Z,100555.48
2023-08-19T21:26:53.678Z,100552.95
2023-08-19T21:29:20.984Z,100551.80
2023-08-19T21:31:48.314Z,100553.92
2023-08-19T21:34:15.728Z,100556.16
2023-08-19T21:36:43.055Z,100556.47
2023-08-19T21:39:10.357Z,100554.83
2023-08-19T21:41:41.145Z,100555.31
2023-08-19T21:44:08.531Z,100559.48
2023-08-19T21:46:35.854Z,100557.29
2023-08-19T21:49:03.566Z,100556.45
2023-08-19T21:51:30.897Z,100550.62
2023-08-19T21:53:58.276Z,100553.66
2023-08-19T21:56:25.749Z,100554.77
2023-08-19T21:58:53.122Z,100552.52
2023-08-19T22:01:20.409Z,100553.48
2023-08-19T22:03:47.739Z,100552.58
2023-08-19T22:06:15.129Z,100548.06
2023-08-19T22:08:42.821Z,100546.11
2023-08-19T22:11:10.129Z,100552.16
2023-08-19T22:13:37.600Z,100549.66
2023-08-19T22:16:05.202Z,100545.02
2023-08-19T22:18:32.514Z,100545.73
2023-08-19T22:21:00.818Z,100548.16
2023-08-19T22:23:28.197Z,100549.86
2023-08-19T22:25:55.589Z,100548.80
2023-08-19T22:28:22.903Z,100543.29
2023-08-19T22:30:50.295Z,100544.73
2023-08-19T22:33:17.794Z,100542.64
2023-08-19T22:35:45.245Z,100546.27
2023-08-19T22:38:12.780Z,100543.26
2023-08-19T22:40:42.059Z,100543.77
2023-08-19T22:43:10.103Z,100542.77
2023-08-19T22:45:37.532Z,100541.30
2023-08-19T22:48:05.319Z,100540.19
2023-08-19T22:50:32.778Z,100543.84
2023-08-19T22:53:00.185Z,100543.02
2023-08-19T22:55:27.608Z,100536.42
2023-08-19T22:57:54.970Z,100537.91
2023-08-19T23:00:22.364Z,100536.83
2023-08-19T23:02:49.780Z,100536.39
2023-08-19T23:05:17.213Z,100535.25
2023-08-19T23:07:44.687Z,100534.99
2023-08-19T23:10:12.234Z,100534.76
2023-08-19T23:12:41.448Z,100531.90
2023-08-19T23:15:09.180Z,100532.67
2023-08-19T23:17:36.753Z,100529.67
2023-08-19T23:20:05.442Z,100532.86
2023-08-19T23:22:32.765Z,100529.41
2023-08-19T23:25:00.136Z,100527.72
2023-08-19T23:27:27.519Z,100526.67
2023-08-19T23:29:54.983Z,100530.28
2023-08-19T23:32:22.345Z,100528.65
2023-08-19T23:34:49.814Z,100529.28
2023-08-19T23:37:17.199Z,100527.67
2023-08-19T23:39:44.604Z,100526.48
2023-08-19T23:42:12.005Z,100527.09
2023-08-19T23:44:39.388Z,100531.23
2023-08-19T23:47:07.133Z,100530.02
2023-08-19T23:49:34.729Z,100527.25
2023-08-19T23:52:02.167Z,100524.25
2023-08-19T23:54:29.880Z,100520.52
2023-08-19T23:56:57.448Z,100521.86
2023-08-19T23:59:26.882Z,100523.80
